Time;durP1;ratioP1;P1;durP2;ratioP2;P2;SDS_P1;SDS_P2;PMS_P1;PMS_P2;Temp;Humidity;BMP_temperature;BMP_pressure;BME280_temperature;BME280_humidity;BME280_pressure;Samples;Min_cycle;Max_cycle;Signal;HPM_P1;HPM_P2
2021/09/27 00:00:41;;;;;;;52.50;33.08;;;;;;;17.00;100.00;100542.41;5052101;28;20037;-54
2021/09/27 00:03:08;;;;;;;44.28;30.75;;;;;;;16.98;100.00;100535.47;5059075;28;20049;-53
2021/09/27 00:05:43;;;;;;;48.30;32.05;;;;;;;16.88;100.00;100521.03;5056782;28;20114;-54
2021/09/27 00:08:10;;;;;;;50.35;33.72;;;;;;;16.94;100.00;100545.53;5064877;28;20386;-54
2021/09/27 00:10:41;;;;;;;56.10;35.22;;;;;;;16.92;100.00;100549.28;5063482;28;20353;-53
2021/09/27 00:13:08;;;;;;;51.50;32.95;;;;;;;16.91;100.00;100547.56;5064384;28;20131;-55
2021/09/27 00:15:42;;;;;;;49.50;32.80;;;;;;;16.91;100.00;100553.78;5061317;28;20068;-53
2021/09/27 00:18:09;;;;;;;49.30;31.88;;;;;;;16.94;100.00;100552.72;5056642;28;20067;-54
2021/09/27 00:20:38;;;;;;;55.38;33.30;;;;;;;16.95;100.00;100555.28;5063753;28;20048;-54
2021/09/27 00:23:05;;;;;;;49.97;33.30;;;;;;;16.96;100.00;100558.81;5063581;28;20036;-52
2021/09/27 00:25:32;;;;;;;52.15;33.45;;;;;;;16.96;100.00;100564.16;5058913;28;20040;-56
2021/09/27 00:27:58;;;;;;;52.80;32.78;;;;;;;16.95;100.00;100560.63;5062567;28;20040;-56
2021/09/27 00:30:25;;;;;;;56.42;33.65;;;;;;;16.95;100.00;100559.78;5050322;28;20059;-56
2021/09/27 00:32:52;;;;;;;60.85;36.60;;;;;;;16.89;100.00;100558.38;5056785;28;20449;-55
2021/09/27 00:35:23;;;;;;;57.13;35.85;;;;;;;16.86;100.00;100555.91;5056097;28;20041;-53
2021/09/27 00:37:50;;;;;;;56.72;36.08;;;;;;;16.85;100.00;100556.88;5062863;28;20044;-56
2021/09/27 00:40:20;;;;;;;66.40;35.70;;;;;;;16.85;100.00;100559.53;5062964;28;20036;-56
2021/09/27 00:42:47;;;;;;;;;;;;;;;16.87;100.00;100556.78;5057669;28;20643;-54
2021/09/27 00:45:17;;;;;;;51.55;33.45;;;;;;;16.84;100.00;100555.19;5059960;28;19921;-51
2021/09/27 00:47:43;;;;;;;60.83;37.38;;;;;;;16.80;100.00;100554.53;5054243;28;20054;-53
2021/09/27 00:50:11;;;;;;;56.53;36.20;;;;;;;16.79;100.00;100549.31;5064221;28;20048;-55
2021/09/27 00:52:38;;;;;;;52.13;35.17;;;;;;;16.76;100.00;100545.00;5059625;28;20041;-54
2021/09/27 00:55:09;;;;;;;52.15;34.30;;;;;;;16.74;100.00;100546.94;5046528;28;20041;-54
2021/09/27 00:57:36;;;;;;;58.28;36.05;;;;;;;16.71;100.00;100552.50;5057010;28;20040;-55
2021/09/27 01:00:07;;;;;;;50.58;33.05;;;;;;;16.68;100.00;100551.88;5064651;28;20047;-54
2021/09/27 01:02:34;;;;;;;59.30;36.20;;;;;;;16.65;100.00;100550.28;5057977;28;20048;-53
2021/09/27 01:05:02;;;;;;;67.40;37.42;;;;;;;16.63;100.00;100549.50;5057649;28;20067;-53
2021/09/27 01:08:11;;;;;;;59.10;36.72;;;;;;;16.61;100.00;100542.53;5063009;28;20074;-53
2021/09/27 01:10:58;;;;;;;63.08;36.88;;;;;;;16.60;100.00;100546.16;5059765;28;20119;-54
2021/09/27 01:13:53;;;;;;;53.60;34.20;;;;;;;16.61;100.00;100550.53;5060799;28;20045;-52
2021/09/27 01:16:40;;;;;;;53.45;33.42;;;;;;;16.58;100.00;100548.06;5060657;28;20052;-52
2021/09/27 01:19:44;;;;;;;53.13;33.20;;;;;;;16.58;100.00;100545.41;5061736;28;20345;-56
2021/09/27 01:22:37;;;;;;;53.70;34.15;;;;;;;16.55;100.00;100543.78;5054863;28;20037;-53
2021/09/27 01:25:34;;;;;;;55.38;34.80;;;;;;;16.54;100.00;100546.56;5058440;28;20055;-52
2021/09/27 01:28:19;;;;;;;54.10;33.70;;;;;;;16.51;100.00;100545.00;5062680;28;20051;-54
2021/09/27 01:31:06;;;;;;;49.92;32.45;;;;;;;16.48;100.00;100546.06;5061410;28;20055;-54
2021/09/27 01:33:41;;;;;;;49.30;32.40;;;;;;;16.49;100.00;100545.09;5058988;28;20188;-54
2021/09/27 01:36:28;;;;;;;56.42;34.30;;;;;;;16.48;100.00;100543.38;5059141;28;20040;-55
2021/09/27 01:39:08;;;;;;;61.38;35.55;;;;;;;16.49;100.00;100545.09;5064979;28;20041;-55
2021/09/27 01:41:46;;;;;;;55.13;34.53;;;;;;;16.54;100.00;100541.22;5061051;28;20040;-56
2021/09/27 01:44:25;;;;;;;60.20;35.45;;;;;;;16.55;100.00;100546.47;5058112;28;20033;-55
2021/09/27 01:46:56;;;;;;;67.30;38.10;;;;;;;16.59;100.00;100544.44;5051069;28;20059;-51
2021/09/27 01:49:31;;;;;;;64.88;37.33;;;;;;;16.57;100.00;100546.38;5059461;28;20079;-55
2021/09/27 01:52:06;;;;;;;70.18;39.35;;;;;;;16.52;100.00;100544.03;5064048;28;20048;-55
2021/09/27 01:54:45;;;;;;;76.82;38.63;;;;;;;16.53;100.00;100559.09;5057998;28;20067;-52
2021/09/27 01:57:26;;;;;;;75.60;39.67;;;;;;;16.48;100.00;100559.41;5060724;28;20037;-56
2021/09/27 02:00:14;;;;;;;76.00;39.70;;;;;;;16.50;100.00;100559.31;5054173;28;20529;-54
2021/09/27 02:03:11;;;;;;;74.93;39.47;;;;;;;16.51;100.00;100560.19;5059464;28;20052;-55
2021/09/27 02:05:50;;;;;;;74.00;38.58;;;;;;;16.48;100.00;100554.06;5058730;28;20106;-53
2021/09/27 02:08:29;;;;;;;71.38;38.28;;;;;;;16.46;100.00;100539.97;5061857;28;20044;-53
2021/09/27 02:11:02;;;;;;;77.35;39.88;;;;;;;16.47;100.00;100549.69;5058172;28;20260;-53
2021/09/27 02:14:03;;;;;;;65.70;35.67;;;;;;;16.45;100.00;100545.41;5057344;28;20481;-53
2021/09/27 02:16:57;;;;;;;75.72;39.58;;;;;;;16.42;100.00;100550.94;5058944;28;20044;-52
2021/09/27 02:19:34;;;;;;;77.90;39.00;;;;;;;16.39;100.00;100548.50;5056568;28;20049;-53
2021/09/27 02:22:18;;;;;;;78.13;39.50;;;;;;;16.33;100.00;100559.63;5057141;28;20046;-58
2021/09/27 02:25:01;;;;;;;72.32;36.50;;;;;;;16.30;100.00;100557.16;5050339;28;20037;-52
2021/09/27 02:27:28;;;;;;;82.30;39.63;;;;;;;16.30;100.00;100541.97;5050834;28;20063;-57
2021/09/27 02:29:54;;;;;;;75.95;38.88;;;;;;;16.16;100.00;100526.03;5060862;28;20048;-53
2021/09/27 02:32:46;;;;;;;80.10;39.55;;;;;;;16.26;100.00;100545.81;5057191;28;20079;-53
2021/09/27 02:35:20;;;;;;;69.72;36.55;;;;;;;16.20;100.00;100540.03;5057030;28;20402;-54
2021/09/27 02:38:14;;;;;;;69.80;36.80;;;;;;;16.24;100.00;100557.56;5061019;28;20072;-53
2021/09/27 02:41:03;;;;;;;69.18;36.20;;;;;;;16.24;100.00;100547.72;5058592;28;20489;-53
2021/09/27 02:43:30;;;;;;;71.43;37.22;;;;;;;16.27;100.00;100547.50;5063525;28;20418;-54
2021/09/27 02:45:57;;;;;;;80.15;39.40;;;;;;;16.29;100.00;100545.59;5064601;28;21422;-54
2021/09/27 02:48:35;;;;;;;72.38;37.97;;;;;;;16.29;100.00;100545.59;5065954;28;20048;-54
2021/09/27 02:51:03;;;;;;;76.63;40.55;;;;;;;16.28;100.00;100541.22;5058623;28;20051;-54
2021/09/27 02:53:30;;;;;;;78.00;40.65;;;;;;;16.32;100.00;100545.41;5058956;28;20478;-52
2021/09/27 02:56:17;;;;;;;88.25;41.80;;;;;;;16.32;100.00;100549.88;5060092;28;20060;-54
2021/09/27 02:58:52;;;;;;;76.10;39.72;;;;;;;16.26;100.00;100550.28;5064563;28;20048;-54
2021/09/27 03:01:29;;;;;;;84.40;41.47;;;;;;;16.27;100.00;100554.69;5063442;28;20051;-54
2021/09/27 03:04:21;;;;;;;75.55;38.45;;;;;;;16.25;100.00;100554.78;5057820;28;20056;-54
2021/09/27 03:07:33;;;;;;;73.55;38.80;;;;;;;16.21;100.00;100539.09;5061432;28;20533;-53
2021/09/27 03:10:06;;;;;;;86.78;41.05;;;;;;;16.21;100.00;100539.94;5061867;28;20041;-54
2021/09/27 03:12:58;;;;;;;85.28;40.58;;;;;;;16.18;100.00;100545.47;5065617;28;20052;-53
2021/09/27 03:15:52;;;;;;;74.72;38.63;;;;;;;16.21;100.00;100547.94;5060413;28;20423;-54
2021/09/27 03:18:48;;;;;;;67.55;35.05;;;;;;;16.20;100.00;100543.56;5063213;28;20064;-55
2021/09/27 03:21:20;;;;;;;69.57;36.38;;;;;;;16.19;100.00;100544.53;5062021;28;20041;-55
2021/09/27 03:24:05;;;;;;;74.30;36.53;;;;;;;16.19;100.00;100541.00;5064923;28;20044;-54
2021/09/27 03:27:00;;;;;;;62.35;34.08;;;;;;;16.20;100.00;100534.69;5061922;28;20053;-53
2021/09/27 03:30:10;;;;;;;62.08;33.88;;;;;;;16.19;100.00;100539.19;5065022;28;20405;-54
2021/09/27 03:32:44;;;;;;;60.95;32.85;;;;;;;16.20;100.00;100546.25;4982352;28;20053;-52
2021/09/27 03:35:19;;;;;;;60.40;34.00;;;;;;;16.02;100.00;100515.41;4982313;28;20054;-53
2021/09/27 03:38:10;;;;;;;66.80;34.85;;;;;;;16.22;100.00;100544.28;5028506;28;20044;-54
2021/09/27 03:40:55;;;;;;;57.00;31.35;;;;;;;16.21;100.00;100544.41;5060120;28;20041;-53
2021/09/27 03:43:51;;;;;;;55.53;30.60;;;;;;;16.19;100.00;100543.66;5055804;28;20037;-54
2021/09/27 03:49:55;;;;;;;62.08;32.65;;;;;;;16.10;100.00;100556.66;5063851;28;20045;-52
2021/09/27 03:52:34;;;;;;;66.72;32.70;;;;;;;16.08;100.00;100555.06;5062941;28;20040;-54
2021/09/27 03:55:09;;;;;;;58.88;30.20;;;;;;;16.07;100.00;100551.53;5062544;28;20040;-52
2021/09/27 03:57:44;;;;;;;58.50;30.38;;;;;;;16.06;100.00;100548.94;5065754;28;20049;-54
2021/09/27 04:00:23;;;;;;;53.58;29.20;;;;;;;16.03;100.00;100546.50;5064558;28;20426;-53
2021/09/27 04:03:00;;;;;;;66.05;32.35;;;;;;;16.02;100.00;100539.47;5056505;28;20045;-54
2021/09/27 04:05:58;;;;;;;70.18;33.05;;;;;;;15.98;100.00;100544.16;5060264;28;20051;-53
2021/09/27 04:08:34;;;;;;;67.05;32.15;;;;;;;16.00;100.00;100544.03;5061721;28;20549;-54
2021/09/27 04:11:07;;;;;;;61.38;31.35;;;;;;;15.98;100.00;100543.28;5058411;28;20054;-53
2021/09/27 04:13:52;;;;;;;73.13;34.38;;;;;;;15.95;100.00;100528.31;5059252;28;20395;-53
2021/09/27 04:16:41;;;;;;;70.75;33.90;;;;;;;15.93;100.00;100537.38;5062741;28;20041;-53
2021/09/27 04:19:22;;;;;;;75.90;35.42;;;;;;;15.91;100.00;100540.16;5061567;28;20149;-53
2021/09/27 04:21:59;;;;;;;83.72;37.88;;;;;;;15.91;100.00;100533.97;5059965;28;20102;-53
2021/09/27 04:24:25;;;;;;;77.05;35.83;;;;;;;15.90;100.00;100541.13;5060863;28;20048;-54
2021/09/27 04:27:23;;;;;;;80.38;36.38;;;;;;;15.89;100.00;100538.56;5059858;28;20152;-52
2021/09/27 04:30:17;;;;;;;82.28;35.85;;;;;;;15.88;100.00;100542.19;5061734;28;20041;-55
2021/09/27 04:33:02;;;;;;;71.68;34.80;;;;;;;15.92;100.00;100535.66;5057175;28;20048;-53
2021/09/27 04:35:31;;;;;;;74.00;34.05;;;;;;;15.93;100.00;100534.72;5058593;28;20040;-54
2021/09/27 04:38:00;;;;;;;79.45;34.47;;;;;;;15.92;100.00;100547.22;5056432;28;20049;-54
2021/09/27 04:40:53;;;;;;;78.32;36.60;;;;;;;15.88;100.00;100535.03;5062951;28;20111;-52
2021/09/27 04:43:34;;;;;;;74.97;35.55;;;;;;;15.89;100.00;100533.22;5057185;28;20048;-52
2021/09/27 04:46:12;;;;;;;66.82;32.53;;;;;;;15.92;100.00;100535.66;5058263;28;20060;-54
2021/09/27 04:49:00;;;;;;;74.88;36.90;;;;;;;15.92;100.00;100527.66;5061462;28;20040;-54
2021/09/27 04:51:36;;;;;;;68.85;34.92;;;;;;;15.97;100.00;100530.88;5063252;28;20471;-53
2021/09/27 04:54:26;;;;;;;67.63;33.88;;;;;;;16.02;100.00;100526.97;5055150;28;20163;-54
2021/09/27 04:57:06;;;;;;;74.68;35.88;;;;;;;16.02;100.00;100526.09;5054865;28;20044;-53
2021/09/27 05:00:01;;;;;;;69.05;35.67;;;;;;;16.03;100.00;100533.16;5049901;28;20044;-53
2021/09/27 05:02:52;;;;;;;67.82;34.00;;;;;;;16.06;100.00;100528.44;5056161;28;20044;-53
2021/09/27 05:05:21;;;;;;;;;;;;;;;16.12;100.00;100535.19;5060508;28;20049;-53
2021/09/27 05:08:23;;;;;;;71.55;35.15;;;;;;;16.13;100.00;100535.09;5050425;28;20326;-54
2021/09/27 05:11:14;;;;;;;64.38;31.67;;;;;;;16.14;100.00;100541.28;5028705;28;20135;-54
2021/09/27 05:14:14;;;;;;;66.25;34.70;;;;;;;16.11;100.00;100539.69;5054922;28;20048;-53
2021/09/27 05:16:47;;;;;;;63.42;34.20;;;;;;;16.10;100.00;100537.13;5052248;28;20067;-53
2021/09/27 05:19:32;;;;;;;64.78;34.90;;;;;;;16.07;100.00;100538.16;5052841;28;20051;-53
2021/09/27 05:22:14;;;;;;;60.50;34.05;;;;;;;16.07;100.00;100540.84;5056206;28;20058;-56
2021/09/27 05:24:44;;;;;;;62.08;34.58;;;;;;;16.09;100.00;100541.59;5051172;28;20036;-54
2021/09/27 05:27:40;;;;;;;60.10;32.83;;;;;;;16.09;100.00;100538.94;5063587;28;20453;-52
2021/09/27 05:30:29;;;;;;;67.80;34.47;;;;;;;16.09;100.00;100540.75;5062935;28;20045;-53
2021/09/27 05:33:01;;;;;;;64.63;34.70;;;;;;;16.07;100.00;100550.66;5063588;28;20448;-54
2021/09/27 05:35:27;;;;;;;65.72;33.88;;;;;;;16.08;100.00;100552.38;5058731;28;20323;-52
2021/09/27 05:38:02;;;;;;;61.13;34.80;;;;;;;16.02;100.00;100545.66;5062072;28;20425;-54
2021/09/27 05:40:55;;;;;;;57.88;33.15;;;;;;;16.05;100.00;100553.47;5062790;28;20502;-54
2021/09/27 05:43:52;;;;;;;66.38;35.15;;;;;;;16.07;100.00;100553.34;5056757;28;20047;-55
2021/09/27 05:46:21;;;;;;;61.72;34.63;;;;;;;16.10;100.00;100558.47;5060348;28;20041;-53
2021/09/27 05:49:00;;;;;;;64.25;34.40;;;;;;;16.11;100.00;100549.50;5060917;28;20121;-53
2021/09/27 05:51:33;;;;;;;63.30;34.45;;;;;;;16.12;100.00;100553.91;5059008;28;20430;-56
2021/09/27 05:54:12;;;;;;;62.17;34.25;;;;;;;16.14;100.00;100544.81;5061018;28;20071;-52
2021/09/27 05:56:53;;;;;;;62.53;33.95;;;;;;;16.18;100.00;100550.81;5058166;28;20037;-55
2021/09/27 05:59:23;;;;;;;62.50;35.15;;;;;;;16.20;100.00;100551.59;5060006;28;20059;-54
2021/09/27 06:02:17;;;;;;;61.95;35.65;;;;;;;16.21;100.00;100555.97;5057620;28;20051;-55
2021/09/27 06:05:10;;;;;;;65.15;34.63;;;;;;;16.23;100.00;100555.84;5023261;28;20037;-53
2021/09/27 06:07:47;;;;;;;62.85;34.92;;;;;;;16.21;100.00;100553.28;5023636;28;20041;-54
2021/09/27 06:10:36;;;;;;;59.95;34.63;;;;;;;16.24;100.00;100546.88;5020770;28;20037;-53
2021/09/27 06:13:17;;;;;;;64.30;35.37;;;;;;;16.24;100.00;100552.19;5022804;28;20049;-52
2021/09/27 06:15:55;;;;;;;;;;;;;;;16.24;100.00;100552.19;5022099;28;20049;-52
2021/09/27 06:18:56;;;;;;;57.60;32.70;;;;;;;16.22;100.00;100554.13;5020258;28;19975;-54
2021/09/27 06:22:00;;;;;;;55.45;31.42;;;;;;;16.15;100.00;100556.38;5022421;28;20061;-52
2021/09/27 06:24:42;;;;;;;53.85;29.63;;;;;;;16.19;100.00;100552.53;5018610;28;20052;-52
2021/09/27 06:27:32;;;;;;;50.42;29.55;;;;;;;16.17;100.00;100545.59;5024288;28;20064;-54
2021/09/27 06:30:05;;;;;;;44.30;27.25;;;;;;;16.05;100.00;100526.75;5014965;28;20060;-55
2021/09/27 06:32:35;;;;;;;49.67;29.10;;;;;;;16.18;100.00;100541.94;5021216;28;20064;-55
2021/09/27 06:35:07;;;;;;;46.08;27.23;;;;;;;16.12;100.00;100543.22;5019277;28;20049;-53
2021/09/27 06:37:34;;;;;;;44.85;28.17;;;;;;;16.11;100.00;100550.38;5022157;28;20391;-53
2021/09/27 06:40:05;;;;;;;35.20;23.73;;;;;;;16.07;100.00;100545.31;5018979;28;20056;-52
2021/09/27 06:42:32;;;;;;;39.42;25.80;;;;;;;16.01;100.00;100530.59;5022583;28;20057;-54
2021/09/27 06:44:58;;;;;;;36.55;23.95;;;;;;;15.98;100.00;100543.28;5020341;28;20049;-53
2021/09/27 06:47:25;;;;;;;38.05;25.05;;;;;;;15.91;100.00;100537.47;5021467;28;20049;-53
2021/09/27 06:49:51;;;;;;;36.03;23.23;;;;;;;15.90;100.00;100543.78;5022265;28;20075;-54
2021/09/27 06:52:18;;;;;;;35.13;22.40;;;;;;;15.93;100.00;100543.59;5018891;28;20048;-52
2021/09/27 06:54:44;;;;;;;37.10;24.00;;;;;;;15.99;100.00;100537.00;5018214;28;20045;-53
2021/09/27 06:57:11;;;;;;;36.50;24.45;;;;;;;15.89;100.00;100514.53;5023722;28;20037;-54
2021/09/27 06:59:38;;;;;;;46.13;28.15;;;;;;;15.89;100.00;100528.75;5020775;28;20045;-54
2021/09/27 07:02:17;;;;;;;40.20;25.70;;;;;;;15.76;100.00;100518.00;5023440;28;20048;-53
2021/09/27 07:04:45;;;;;;;41.35;26.98;;;;;;;15.78;100.00;100518.75;5050256;28;20056;-53
2021/09/27 07:07:11;;;;;;;45.58;27.55;;;;;;;15.89;100.00;100536.75;5052705;28;20057;-52
2021/09/27 07:09:38;;;;;;;40.72;27.13;;;;;;;15.89;100.00;100530.56;5058931;28;20053;-52
2021/09/27 07:12:06;;;;;;;40.45;27.00;;;;;;;16.00;100.00;100536.03;5063423;28;20040;-53
2021/09/27 07:14:32;;;;;;;41.10;26.50;;;;;;;16.01;100.00;100535.94;5056487;28;20043;-53
2021/09/27 07:17:01;;;;;;;37.10;24.73;;;;;;;16.03;100.00;100538.50;5055804;28;20036;-53
2021/09/27 07:19:28;;;;;;;38.00;23.88;;;;;;;16.11;100.00;100537.00;5061195;28;20428;-53
2021/09/27 07:21:55;;;;;;;40.05;24.58;;;;;;;16.15;100.00;100532.31;5060928;28;20047;-53
2021/09/27 07:24:24;;;;;;;34.55;23.90;;;;;;;16.23;100.00;100538.00;5054479;28;20288;-53
2021/09/27 07:26:51;;;;;;;37.55;24.38;;;;;;;16.37;100.00;100540.56;5061525;28;20055;-55
2021/09/27 07:29:17;;;;;;;38.83;24.33;;;;;;;16.35;100.00;100539.00;5063679;28;20044;-53
2021/09/27 07:31:44;;;;;;;37.83;25.63;;;;;;;16.38;100.00;100536.94;5064710;28;20044;-52
2021/09/27 07:34:11;;;;;;;39.13;26.90;;;;;;;16.26;100.00;100521.75;5063346;28;20557;-53
2021/09/27 07:36:39;;;;;;;34.60;23.95;;;;;;;16.42;100.00;100543.78;5063354;28;20850;-52
2021/09/27 07:39:07;;;;;;;39.80;25.17;;;;;;;16.49;100.00;100547.78;5063218;28;20060;-53
2021/09/27 07:41:34;;;;;;;35.35;23.70;;;;;;;16.57;100.00;100541.03;5063124;28;20047;-52
2021/09/27 07:44:03;;;;;;;37.15;24.73;;;;;;;16.62;100.00;100536.22;5063335;28;20563;-53
2021/09/27 07:46:29;;;;;;;35.33;23.30;;;;;;;16.70;100.00;100539.22;5061151;28;20389;-52
2021/09/27 07:48:56;;;;;;;33.83;22.92;;;;;;;16.75;100.00;100550.47;5059993;28;20048;-55
2021/09/27 07:51:23;;;;;;;40.08;24.48;;;;;;;16.78;100.00;100547.59;5059940;28;20079;-53
2021/09/27 07:53:50;;;;;;;36.92;24.65;;;;;;;16.76;100.00;100549.50;5059413;28;20052;-53
2021/09/27 07:56:16;;;;;;;35.53;24.13;;;;;;;16.75;100.00;100548.66;5064655;28;20047;-54
2021/09/27 07:58:43;;;;;;;36.15;23.38;;;;;;;16.78;100.00;100552.94;5061841;28;20048;-53
2021/09/27 08:01:10;;;;;;;38.97;24.52;;;;;;;16.77;100.00;100545.88;5059167;28;20413;-54
2021/09/27 08:03:37;;;;;;;33.33;24.65;;;;;;;16.81;100.00;100550.06;5058550;28;20545;-55
2021/09/27 08:06:06;;;;;;;36.08;24.50;;;;;;;16.89;100.00;100562.88;5060282;28;20048;-52
2021/09/27 08:08:33;;;;;;;33.22;23.30;;;;;;;17.05;99.23;100553.66;5065249;28;20044;-52
2021/09/27 08:10:59;;;;;;;34.10;24.38;;;;;;;17.16;98.28;100556.41;5061312;28;20052;-52
2021/09/27 08:13:26;;;;;;;33.78;24.30;;;;;;;17.21;97.59;100563.25;5062389;28;20045;-53
2021/09/27 08:15:55;;;;;;;34.85;24.50;;;;;;;17.24;97.32;100569.25;5060345;28;20426;-56
2021/09/27 08:18:22;;;;;;;31.77;22.70;;;;;;;17.18;96.76;100557.16;5059499;28;20051;-53
2021/09/27 08:20:56;;;;;;;30.58;23.05;;;;;;;17.13;97.72;100558.47;5064292;28;20047;-53
2021/09/27 08:23:24;;;;;;;31.88;23.15;;;;;;;17.20;97.34;100567.75;5062863;28;20616;-53
2021/09/27 08:25:53;;;;;;;30.83;23.15;;;;;;;17.33;96.56;100565.91;5056442;28;20059;-54
2021/09/27 08:28:22;;;;;;;30.95;22.83;;;;;;;17.56;95.81;100552.66;5064732;28;20051;-53
2021/09/27 08:30:54;;;;;;;28.40;22.47;;;;;;;17.80;93.95;100564.28;5057345;28;20045;-54
2021/09/27 08:33:22;;;;;;;29.58;21.40;;;;;;;18.08;92.02;100560.41;5065199;28;20101;-52
2021/09/27 08:35:50;;;;;;;26.27;20.05;;;;;;;18.35;90.90;100565.47;5062305;28;20421;-54
2021/09/27 08:38:19;;;;;;;27.73;20.10;;;;;;;18.52;88.93;100565.91;5060463;28;20053;-54
2021/09/27 08:41:05;;;;;;;23.67;17.83;;;;;;;18.52;86.96;100568.59;5062620;28;20056;-55
2021/09/27 08:43:36;;;;;;;24.48;18.10;;;;;;;18.47;87.36;100570.75;5055910;28;20067;-52
2021/09/27 08:46:11;;;;;;;27.88;18.52;;;;;;;18.34;87.72;100564.63;5052534;28;20482;-53
2021/09/27 08:49:05;;;;;;;23.23;18.35;;;;;;;18.22;88.43;100560.22;5064911;28;20401;-52
2021/09/27 08:51:37;;;;;;;26.85;18.38;;;;;;;18.07;89.40;100562.22;5041540;28;20049;-52
2021/09/27 08:54:10;;;;;;;22.05;17.30;;;;;;;17.98;89.86;100564.72;5054450;28;20488;-52
2021/09/27 08:56:53;;;;;;;22.10;18.02;;;;;;;18.00;89.75;100557.44;5050439;28;20076;-52
2021/09/27 08:59:32;;;;;;;23.15;18.05;;;;;;;17.95;90.81;100568.47;5060102;28;20044;-52
2021/09/27 09:02:10;;;;;;;22.67;16.83;;;;;;;17.93;90.92;100564.25;5058956;28;20055;-52
2021/09/27 09:04:58;;;;;;;25.42;18.77;;;;;;;17.96;91.04;100567.50;5056414;28;20052;-53
2021/09/27 09:07:26;;;;;;;21.02;16.63;;;;;;;17.90;90.50;100559.09;5060616;28;20425;-55
2021/09/27 09:10:02;;;;;;;21.48;17.38;;;;;;;17.81;90.71;100552.59;5060858;28;20127;-53
2021/09/27 09:12:47;;;;;;;22.35;17.88;;;;;;;17.85;90.81;100559.44;5063091;28;20053;-54
2021/09/27 09:15:22;;;;;;;22.92;18.20;;;;;;;17.97;90.57;100554.97;5058907;28;20534;-52
2021/09/27 09:17:55;;;;;;;21.08;17.42;;;;;;;18.08;88.78;100552.38;5054937;28;20244;-54
2021/09/27 09:20:42;;;;;;;20.08;16.23;;;;;;;18.17;89.05;100540.94;5062325;28;20407;-53
2021/09/27 09:23:16;;;;;;;19.23;16.70;;;;;;;18.38;88.50;100544.66;5055722;28;20525;-52
2021/09/27 09:25:43;;;;;;;19.95;16.85;;;;;;;18.55;87.00;100541.53;5054949;28;20041;-52
2021/09/27 09:28:11;;;;;;;21.13;16.77;;;;;;;18.73;86.38;100541.94;5060305;28;20041;-53
2021/09/27 09:30:55;;;;;;;20.42;16.67;;;;;;;18.73;86.69;100544.63;5061700;28;20052;-54
2021/09/27 09:33:55;;;;;;;19.02;15.38;;;;;;;18.68;86.09;100536.09;5061911;28;20052;-54
2021/09/27 09:36:25;;;;;;;21.42;16.00;;;;;;;18.82;85.38;100546.59;5029499;28;20050;-54
2021/09/27 09:38:52;;;;;;;19.08;16.33;;;;;;;18.98;85.18;100540.88;5063138;28;20043;-54
2021/09/27 09:41:21;;;;;;;17.70;15.35;;;;;;;19.65;83.63;100548.00;5061018;28;20037;-53
2021/09/27 09:43:50;;;;;;;19.63;15.07;;;;;;;19.91;79.90;100523.38;5057297;28;20047;-53
2021/09/27 09:46:22;;;;;;;17.27;13.98;;;;;;;20.01;78.51;100544.94;5057442;28;20055;-52
2021/09/27 09:49:10;;;;;;;16.65;14.73;;;;;;;19.94;79.52;100544.63;5058942;28;20049;-54
2021/09/27 09:51:43;;;;;;;17.10;14.85;;;;;;;19.85;79.81;100547.19;5060309;28;20051;-54
2021/09/27 09:54:19;;;;;;;18.08;14.60;;;;;;;19.75;78.96;100544.44;5055386;28;20048;-53
2021/09/27 09:57:02;;;;;;;16.88;14.60;;;;;;;19.75;79.91;100548.94;5056360;28;20054;-52
2021/09/27 09:59:35;;;;;;;16.80;14.40;;;;;;;19.73;80.12;100542.84;5055433;28;20606;-54
2021/09/27 10:02:07;;;;;;;16.58;13.82;;;;;;;19.79;80.26;100545.03;5053425;28;20040;-53
2021/09/27 10:04:41;;;;;;;16.83;13.52;;;;;;;19.92;79.58;100533.13;5056392;28;20592;-54
2021/09/27 10:07:17;;;;;;;14.27;12.77;;;;;;;20.60;77.75;100536.34;5062120;28;20048;-53
2021/09/27 10:09:58;;;;;;;13.00;11.30;;;;;;;21.50;73.82;100536.47;5050752;28;20055;-53
2021/09/27 10:12:43;;;;;;;13.18;10.65;;;;;;;22.25;68.74;100533.13;5059000;28;20402;-54
2021/09/27 10:15:35;;;;;;;11.60;9.75;;;;;;;22.82;65.93;100521.41;5062284;28;20051;-53
2021/09/27 10:18:03;;;;;;;10.93;9.77;;;;;;;22.63;65.52;100524.97;5061443;28;20553;-52
2021/09/27 10:20:36;;;;;;;11.05;9.80;;;;;;;22.67;64.32;100525.50;5060093;28;20045;-54
2021/09/27 10:23:11;;;;;;;11.13;9.50;;;;;;;22.18;67.18;100527.47;5062770;28;20044;-52
2021/09/27 10:25:42;;;;;;;11.52;9.50;;;;;;;22.59;64.66;100528.97;5055725;28;20056;-53
2021/09/27 10:28:20;;;;;;;11.60;9.15;;;;;;;22.84;64.30;100502.31;5058424;28;20044;-55
2021/09/27 10:30:48;;;;;;;11.75;8.82;;;;;;;23.39;63.42;100522.13;5060298;28;20097;-55
2021/09/27 10:33:23;;;;;;;8.52;7.32;;;;;;;23.81;61.05;100519.72;5056131;28;20406;-53
2021/09/27 10:35:54;;;;;;;8.80;7.22;;;;;;;24.21;59.66;100530.09;5059448;28;20040;-53
2021/09/27 10:38:40;;;;;;;8.60;7.30;;;;;;;24.25;59.26;100530.63;5060901;28;20498;-54
2021/09/27 10:41:30;;;;;;;7.57;6.57;;;;;;;24.25;58.87;100533.34;5057223;28;20048;-54
2021/09/27 10:44:05;;;;;;;8.32;7.00;;;;;;;24.10;58.39;100525.75;5056948;28;20059;-53
2021/09/27 10:46:37;;;;;;;8.38;7.53;;;;;;;23.55;60.17;100527.75;5058732;28;20511;-54
2021/09/27 10:49:13;;;;;;;9.30;7.55;;;;;;;23.61;59.29;100526.28;5061400;28;20040;-52
2021/09/27 10:51:40;;;;;;;7.80;6.93;;;;;;;24.02;58.66;100525.69;5060160;28;20041;-54
2021/09/27 10:54:40;;;;;;;9.18;7.70;;;;;;;24.13;57.51;100514.63;5043062;28;20502;-55
2021/09/27 10:57:19;;;;;;;10.63;7.67;;;;;;;23.69;58.93;100521.81;5060310;28;20515;-54
2021/09/27 11:00:00;;;;;;;14.23;8.57;;;;;;;23.54;60.19;100523.34;5056597;28;20041;-53
2021/09/27 11:02:34;;;;;;;9.43;8.25;;;;;;;24.04;59.68;100530.94;5057279;28;20060;-52
2021/09/27 11:05:25;;;;;;;8.57;7.78;;;;;;;24.75;56.79;100522.69;5060769;28;20428;-53
2021/09/27 11:07:57;;;;;;;8.82;7.90;;;;;;;25.32;53.98;100518.47;5057869;28;20409;-52
2021/09/27 11:10:29;;;;;;;8.43;7.47;;;;;;;24.98;55.79;100509.50;5059542;28;20071;-54
2021/09/27 11:12:56;;;;;;;9.43;8.43;;;;;;;24.50;56.50;100524.41;5062758;28;20496;-55
2021/09/27 11:15:32;;;;;;;10.52;9.38;;;;;;;23.46;59.63;100523.19;5063157;28;20056;-53
2021/09/27 11:18:02;;;;;;;13.02;9.07;;;;;;;22.89;62.25;100527.03;5062348;28;20060;-54
2021/09/27 11:20:39;;;;;;;10.30;8.93;;;;;;;22.60;63.86;100519.88;5058807;28;20048;-55
2021/09/27 11:23:27;;;;;;;10.30;8.55;;;;;;;22.45;64.90;100517.78;5064067;28;20048;-54
2021/09/27 11:26:18;;;;;;;8.98;8.07;;;;;;;22.12;66.98;100521.78;5063203;28;20521;-53
2021/09/27 11:28:53;;;;;;;9.98;7.53;;;;;;;22.03;66.86;100515.41;5057599;28;20044;-53
2021/09/27 11:31:33;;;;;;;9.35;8.07;;;;;;;22.68;65.40;100503.78;5063931;28;20055;-54
2021/09/27 11:34:42;;;;;;;9.93;8.10;;;;;;;23.59;61.41;100503.97;5062942;28;20063;-53
2021/09/27 11:37:24;;;;;;;9.75;8.07;;;;;;;24.03;59.45;100497.63;5062218;28;20047;-55
2021/09/27 11:40:08;;;;;;;9.52;7.78;;;;;;;24.36;58.09;100487.94;5057411;28;20051;-53
2021/09/27 11:43:04;;;;;;;9.77;8.18;;;;;;;24.56;58.41;100493.97;5062348;28;20059;-54
2021/09/27 11:45:32;;;;;;;9.25;7.32;;;;;;;24.39;58.62;100497.63;5030157;28;20045;-53
2021/09/27 11:48:04;;;;;;;10.07;7.90;;;;;;;24.32;59.08;100491.97;5065033;28;20097;-56
2021/09/27 11:50:37;;;;;;;8.15;7.15;;;;;;;24.23;58.79;100495.63;5066657;28;20044;-54
2021/09/27 11:53:16;;;;;;;10.32;8.48;;;;;;;23.88;60.28;100488.38;5066982;28;20056;-55
2021/09/27 11:55:58;;;;;;;10.07;7.63;;;;;;;23.88;59.90;100491.06;5054374;28;20051;-56